Time;durP1;ratioP1;P1;durP2;ratioP2;P2;SDS_P1;SDS_P2;PMS_P1;PMS_P2;Temp;Humidity;BMP_temperature;BMP_pressure;BME280_temperature;BME280_humidity;BME280_pressure;Samples;Min_cycle;Max_cycle;Signal;HPM_P1;HPM_P2
2022/04/24 00:00:39;;;;;;;;;;;;;;;21.42;43.08;100102.28;5041662;28;19924;-84
2022/04/24 00:03:05;;;;;;;;;;;;;;;21.42;43.11;100105.00;5020642;28;20023;-85
2022/04/24 00:05:30;;;;;;;;;;;;;;;21.42;42.99;100102.28;5054605;28;19943;-86
2022/04/24 00:07:56;;;;;;;;;;;;;;;21.42;43.17;100095.94;5050151;28;20026;-84
2022/04/24 00:10:21;;;;;;;;;;;;;;;21.41;43.13;100103.38;5051718;28;20285;-84
2022/04/24 00:12:48;;;;;;;;;;;;;;;21.41;42.94;100097.09;5052492;28;20296;-84
2022/04/24 00:15:13;;;;;;;;;;;;;;;21.40;43.13;100093.53;5032334;28;19964;-84
2022/04/24 00:17:39;;;;;;;;;;;;;;;21.41;42.97;100097.88;5020256;28;20336;-84
2022/04/24 00:20:05;;;;;;;;;;;;;;;21.39;42.97;100089.16;5052148;28;19921;-84
2022/04/24 00:22:30;;;;;;;;;;;;;;;21.39;42.90;100089.16;5065166;28;20380;-85
2022/04/24 00:24:55;;;;;;;;;;;;;;;21.39;42.88;100089.16;5075651;28;19929;-84
2022/04/24 00:27:20;;;;;;;;;;;;;;;21.39;43.12;100090.00;5031740;28;20385;-84
2022/04/24 00:29:46;;;;;;;;;;;;;;;21.38;42.97;100087.53;5037423;28;19924;-84
2022/04/24 00:32:11;;;;;;;;;;;;;;;21.37;42.93;100081.25;5048392;28;19921;-84
2022/04/24 00:34:36;;;;;;;;;;;;;;;21.37;43.09;100088.69;5029793;28;20303;-85
2022/04/24 00:37:02;;;;;;;;;;;;;;;21.37;43.19;100089.50;5056555;28;19950;-84
2022/04/24 00:39:27;;;;;;;;;;;;;;;21.37;42.81;100091.44;5043577;28;19928;-84
2022/04/24 00:41:52;;;;;;;;;;;;;;;21.35;42.81;100086.25;5045297;28;19928;-84
2022/04/24 00:44:18;;;;;;;;;;;;;;;21.36;42.95;100081.56;5051145;28;19917;-85
2022/04/24 00:46:49;;;;;;;;;;;;;;;21.36;42.83;100087.06;5069685;28;19920;-84
2022/04/24 00:49:15;;;;;;;;;;;;;;;21.35;43.09;100083.50;5057386;28;20335;-85
2022/04/24 00:51:40;;;;;;;;;;;;;;;21.35;42.83;100089.00;5049941;28;19924;-84
2022/04/24 00:54:07;;;;;;;;;;;;;;;21.34;43.03;100087.41;5031867;28;19968;-85
2022/04/24 00:56:33;;;;;;;;;;;;;;;21.34;42.93;100083.84;5044603;28;19924;-84
2022/04/24 00:58:58;;;;;;;;;;;;;;;21.34;42.94;100076.41;5077232;28;20197;-85
2022/04/24 01:01:23;;;;;;;;;;;;;;;21.34;43.16;100083.84;5049674;28;19925;-84
2022/04/24 01:03:49;;;;;;;;;;;;;;;21.32;42.88;100086.94;5050675;28;19932;-84
2022/04/24 01:06:14;;;;;;;;;;;;;;;21.34;42.89;100083.84;5058350;28;20318;-84
2022/04/24 01:08:39;;;;;;;;;;;;;;;21.33;42.81;100088.53;5063423;28;19961;-85
2022/04/24 01:11:04;;;;;;;;;;;;;;;21.32;42.64;100086.94;5042635;28;19921;-84
2022/04/24 01:13:30;;;;;;;;;;;;;;;21.32;42.95;100075.94;5030344;28;19971;-84
2022/04/24 01:15:59;;;;;;;;;;;;;;;21.32;43.00;100084.19;5041232;28;20442;-84
2022/04/24 01:18:25;;;;;;;;;;;;;;;21.32;42.75;100080.63;5030373;28;19925;-84
2022/04/24 01:20:51;;;;;;;;;;;;;;;21.31;42.98;100088.03;5036863;28;19983;-84
2022/04/24 01:23:16;;;;;;;;;;;;;;;21.31;42.90;100084.50;5039175;28;19916;-84
2022/04/24 01:25:41;;;;;;;;;;;;;;;21.30;42.93;100091.16;5041509;28;19982;-84
2022/04/24 01:28:10;;;;;;;;;;;;;;;21.29;42.70;100086.75;5049739;28;19920;-84
2022/04/24 01:30:35;;;;;;;;;;;;;;;21.30;42.76;100085.66;5055112;28;19921;-84
2022/04/24 01:33:01;;;;;;;;;;;;;;;21.29;42.65;100084.03;5051106;28;19940;-82
2022/04/24 01:35:26;;;;;;;;;;;;;;;21.29;42.82;100089.50;5054983;28;19917;-82
2022/04/24 01:37:52;;;;;;;;;;;;;;;21.28;42.86;100094.22;5056790;28;20308;-83
2022/04/24 01:40:20;;;;;;;;;;;;;;;21.28;42.85;100094.22;5055513;28;19920;-82
2022/04/24 01:42:45;;;;;;;;;;;;;;;21.27;42.55;100095.34;5056242;28;20315;-83
2022/04/24 01:45:10;;;;;;;;;;;;;;;21.28;42.86;100096.16;5056915;28;19917;-84
2022/04/24 01:47:36;;;;;;;;;;;;;;;21.27;42.65;100095.34;5056578;28;19979;-83
2022/04/24 01:50:01;;;;;;;;;;;;;;;21.27;42.74;100091.78;5055519;28;19916;-84
2022/04/24 01:52:26;;;;;;;;;;;;;;;21.27;42.96;100089.03;5056755;28;19917;-86
2022/04/24 01:54:51;;;;;;;;;;;;;;;21.27;42.94;100083.53;5055269;28;19917;-82
2022/04/24 01:57:17;;;;;;;;;;;;;;;21.26;42.80;100090.19;5056463;28;19920;-84
2022/04/24 01:59:42;;;;;;;;;;;;;;;21.27;42.88;100089.03;5055119;28;20399;-90
2022/04/24 02:02:07;;;;;;;;;;;;;;;21.26;42.37;100087.44;5055041;28;20432;-84
2022/04/24 02:04:32;;;;;;;;;;;;;;;21.26;42.47;100090.19;5055198;28;19927;-83
2022/04/24 02:06:58;;;;;;;;;;;;;;;21.25;42.80;100085.84;5071869;28;20376;-82
2022/04/24 02:09:23;;;;;;;;;;;;;;;21.24;42.58;100090.50;5054972;28;19928;-82
2022/04/24 02:11:48;;;;;;;;;;;;;;;21.24;42.69;100085.00;5056319;28;19971;-89
2022/04/24 02:14:13;;;;;;;;;;;;;;;21.24;42.83;100084.22;5072574;28;19948;-83
2022/04/24 02:16:39;;;;;;;;;;;;;;;21.23;42.79;100088.09;5054957;28;19976;-83
2022/04/24 02:19:04;;;;;;;;;;;;;;;21.24;42.67;100100.69;5054715;28;19912;-83
2022/04/24 02:21:29;;;;;;;;;;;;;;;21.23;42.73;100090.84;5088063;28;19921;-83
2022/04/24 02:23:55;;;;;;;;;;;;;;;21.22;42.75;100084.56;5055977;28;19921;-83
2022/04/24 02:26:20;;;;;;;;;;;;;;;21.22;42.72;100083.72;5054309;28;19928;-83
2022/04/24 02:28:45;;;;;;;;;;;;;;;21.22;42.55;100087.31;5070997;28;20385;-91
2022/04/24 02:31:11;;;;;;;;;;;;;;;21.22;42.82;100092.78;5088497;28;19974;-83
2022/04/24 02:33:36;;;;;;;;;;;;;;;21.21;42.46;100088.41;5056067;28;19927;-83
2022/04/24 02:36:02;;;;;;;;;;;;;;;21.21;42.79;100087.63;5055493;28;20003;-83
2022/04/24 02:38:27;;;;;;;;;;;;;;;21.20;42.76;100089.56;5056043;28;19920;-82
2022/04/24 02:40:54;;;;;;;;;;;;;;;21.20;42.79;100086.81;5088032;28;19921;-83
2022/04/24 02:43:19;;;;;;;;;;;;;;;21.20;42.68;100089.56;5055562;28;19916;-83
2022/04/24 02:45:44;;;;;;;;;;;;;;;21.19;42.52;100093.44;5054346;28;20250;-82
2022/04/24 02:48:10;;;;;;;;;;;;;;;21.18;42.62;100092.63;5087420;28;19921;-84
2022/04/24 02:50:35;;;;;;;;;;;;;;;21.19;42.67;100090.69;5054317;28;20281;-82
2022/04/24 02:53:01;;;;;;;;;;;;;;;21.18;42.79;100098.13;5088126;28;20285;-83
2022/04/24 02:55:26;;;;;;;;;;;;;;;21.18;42.84;100091.84;5055965;28;19917;-83
2022/04/24 02:57:52;;;;;;;;;;;;;;;21.15;42.78;100093.28;5055237;28;19949;-85
2022/04/24 03:00:21;;;;;;;;;;;;;;;21.16;42.61;100091.34;5055374;28;19971;-82
2022/04/24 03:02:46;;;;;;;;;;;;;;;21.16;42.68;100094.91;5054379;28;19917;-88
2022/04/24 03:05:13;;;;;;;;;;;;;;;21.16;42.60;100094.91;5055259;28;19960;-84
2022/04/24 03:07:38;;;;;;;;;;;;;;;21.15;42.61;100090.56;5054557;28;20384;-84
2022/04/24 03:10:03;;;;;;;;;;;;;;;21.15;42.70;100093.28;5087824;28;19925;-83
2022/04/24 03:12:29;;;;;;;;;;;;;;;21.14;42.76;100096.38;5071148;28;20254;-83
2022/04/24 03:14:55;;;;;;;;;;;;;;;21.14;42.63;100091.69;5053749;28;19999;-84
2022/04/24 03:17:20;;;;;;;;;;;;;;;21.14;42.43;100090.88;5070573;28;19921;-84
2022/04/24 03:19:45;;;;;;;;;;;;;;;21.13;42.71;100097.50;5053283;28;19920;-82
2022/04/24 03:22:10;;;;;;;;;;;;;;;21.13;42.69;100090.06;5087287;28;20288;-83
2022/04/24 03:24:36;;;;;;;;;;;;;;;21.13;42.52;100098.31;5053656;28;19917;-82
2022/04/24 03:27:01;;;;;;;;;;;;;;;21.12;42.62;100091.22;5070064;28;19920;-82
2022/04/24 03:29:26;;;;;;;;;;;;;;;21.12;42.53;100101.41;5053582;28;19932;-82
2022/04/24 03:31:53;;;;;;;;;;;;;;;21.12;42.37;100101.41;5055001;28;19974;-82
2022/04/24 03:34:18;;;;;;;;;;;;;;;21.11;42.57;100100.56;5087477;28;19928;-82
2022/04/24 03:36:43;;;;;;;;;;;;;;;21.12;42.42;100095.91;5054623;28;20304;-83
2022/04/24 03:39:08;;;;;;;;;;;;;;;21.11;42.56;100097.03;5053200;28;19920;-83
2022/04/24 03:41:34;;;;;;;;;;;;;;;21.10;42.76;100101.72;5054297;28;19921;-83
2022/04/24 03:43:59;;;;;;;;;;;;;;;21.10;42.63;100101.72;5054678;28;20357;-83
2022/04/24 03:46:24;;;;;;;;;;;;;;;21.10;42.55;100104.47;5054539;28;19921;-82
2022/04/24 03:48:50;;;;;;;;;;;;;;;21.10;42.24;100093.47;5052813;28;19967;-88
2022/04/24 03:51:15;;;;;;;;;;;;;;;21.10;42.63;100100.91;5069391;28;19928;-82
2022/04/24 03:53:40;;;;;;;;;;;;;;;21.10;42.52;100095.44;5054549;28;19921;-82
2022/04/24 03:56:05;;;;;;;;;;;;;;;21.09;42.59;100097.38;5069648;28;19921;-83
2022/04/24 03:58:31;;;;;;;;;;;;;;;21.09;42.43;100102.03;5052853;28;20432;-83
2022/04/24 04:00:56;;;;;;;;;;;;;;;21.08;42.29;100095.75;5052877;28;19924;-83
2022/04/24 04:03:21;;;;;;;;;;;;;;;21.07;42.50;100096.91;5054400;28;19928;-83
2022/04/24 04:05:46;;;;;;;;;;;;;;;21.08;42.55;100098.50;5086738;28;19928;-82
2022/04/24 04:08:12;;;;;;;;;;;;;;;21.07;42.42;100096.09;5086075;28;20360;-82
2022/04/24 04:10:37;;;;;;;;;;;;;;;21.07;42.55;100096.09;5053755;28;19924;-83
2022/04/24 04:13:09;;;;;;;;;;;;;;;21.06;42.63;100103.50;5086952;28;20008;-84
2022/04/24 04:15:35;;;;;;;;;;;;;;;21.07;42.66;100096.09;5054287;28;19917;-83
2022/04/24 04:18:00;;;;;;;;;;;;;;;21.05;42.52;100104.66;5054012;28;19921;-83
2022/04/24 04:20:26;;;;;;;;;;;;;;;21.06;42.62;100102.69;5052717;28;19927;-83
2022/04/24 04:22:51;;;;;;;;;;;;;;;21.06;42.57;100108.19;5069407;28;20380;-82
2022/04/24 04:25:21;;;;;;;;;;;;;;;21.06;42.47;100108.19;5053594;28;20015;-82
2022/04/24 04:27:47;;;;;;;;;;;;;;;21.04;42.32;100103.06;5052239;28;19936;-84
2022/04/24 04:30:12;;;;;;;;;;;;;;;21.03;42.66;100106.91;5053938;28;20284;-82
2022/04/24 04:32:38;;;;;;;;;;;;;;;21.04;42.53;100113.19;5053621;28;19917;-82
2022/04/24 04:35:04;;;;;;;;;;;;;;;21.04;42.20;100110.47;5086136;28;20420;-84
2022/04/24 04:37:30;;;;;;;;;;;;;;;21.03;42.55;100106.91;5069951;28;19986;-83
2022/04/24 04:39:55;;;;;;;;;;;;;;;21.02;42.26;100113.53;5086108;28;19927;-84
2022/04/24 04:42:21;;;;;;;;;;;;;;;21.02;42.61;100121.00;5086134;28;19921;-85
2022/04/24 04:44:46;;;;;;;;;;;;;;;21.02;42.35;100118.25;5053579;28;19927;-85
2022/04/24 04:47:11;;;;;;;;;;;;;;;21.03;42.32;100119.84;5052354;28;19972;-83
2022/04/24 04:49:36;;;;;;;;;;;;;;;21.03;42.41;100128.88;5053720;28;20427;-83
2022/04/24 04:52:02;;;;;;;;;;;;;;;21.01;42.44;100122.09;5053183;28;19924;-83
2022/04/24 04:54:27;;;;;;;;;;;;;;;21.02;42.41;100126.47;5052423;28;20406;-82
2022/04/24 04:56:52;;;;;;;;;;;;;;;21.01;42.53;100128.38;5086269;28;20023;-83
2022/04/24 04:59:18;;;;;;;;;;;;;;;21.02;42.48;100137.47;5069255;28;19928;-82
2022/04/24 05:01:43;;;;;;;;;;;;;;;21.01;42.50;100130.34;5068990;28;19925;-83
2022/04/24 05:04:08;;;;;;;;;;;;;;;21.01;42.26;100133.88;5052551;28;19916;-84
2022/04/24 05:06:35;;;;;;;;;;;;;;;21.02;42.45;100142.94;5052384;28;19925;-82
2022/04/24 05:09:00;;;;;;;;;;;;;;;21.00;42.49;100137.78;5069315;28;19920;-83
2022/04/24 05:11:25;;;;;;;;;;;;;;;21.01;42.14;100142.13;5055284;28;20288;-82
2022/04/24 05:13:51;;;;;;;;;;;;;;;21.00;42.43;100146.00;5056614;28;19921;-83
2022/04/24 05:16:16;;;;;;;;;;;;;;;21.00;42.42;100151.50;5056221;28;20294;-87
2022/04/24 05:18:41;;;;;;;;;;;;;;;21.00;42.20;100151.50;5057799;28;19924;-82
2022/04/24 05:21:06;;;;;;;;;;;;;;;21.00;42.41;100157.00;5055815;28;20420;-85
2022/04/24 05:23:32;;;;;;;;;;;;;;;21.01;42.14;100153.09;5055776;28;19967;-84
2022/04/24 05:25:58;;;;;;;;;;;;;;;21.01;42.20;100166.03;5057148;28;19928;-82
2022/04/24 05:28:23;;;;;;;;;;;;;;;20.99;42.40;100163.63;5055389;28;19924;-83
2022/04/24 05:30:48;;;;;;;;;;;;;;;21.00;42.46;100167.97;5072335;28;19921;-82
2022/04/24 05:33:17;;;;;;;;;;;;;;;21.00;42.27;100161.69;5090135;28;19925;-82
2022/04/24 05:35:43;;;;;;;;;;;;;;;20.99;42.24;100160.88;5056825;28;19921;-82
2022/04/24 05:38:08;;;;;;;;;;;;;;;21.00;42.54;100161.69;5055846;28;20015;-82
2022/04/24 05:40:33;;;;;;;;;;;;;;;21.00;42.34;100167.97;5057155;28;20331;-81
2022/04/24 05:42:59;;;;;;;;;;;;;;;21.00;42.43;100169.94;5088868;28;20078;-82
2022/04/24 05:45:27;;;;;;;;;;;;;;;20.99;42.08;100169.13;5056637;28;19925;-82
2022/04/24 05:47:55;;;;;;;;;;;;;;;20.99;42.18;100166.38;5056642;28;20011;-81
2022/04/24 05:50:23;;;;;;;;;;;;;;;21.00;42.43;100169.94;5087966;28;19917;-83
2022/04/24 05:52:48;;;;;;;;;;;;;;;20.99;42.22;100174.63;5056310;28;20296;-82
2022/04/24 05:55:13;;;;;;;;;;;;;;;20.99;42.38;100174.63;5056988;28;20004;-82
2022/04/24 05:57:39;;;;;;;;;;;;;;;20.99;42.43;100182.03;5089424;28;19921;-82
2022/04/24 06:00:05;;;;;;;;;;;;;;;20.99;42.36;100182.03;5056510;28;19925;-82
2022/04/24 06:02:30;;;;;;;;;;;;;;;20.99;42.31;100177.34;5056646;28;20368;-87
2022/04/24 06:04:56;;;;;;;;;;;;;;;20.98;42.13;100177.69;5071857;28;19920;-83
2022/04/24 06:07:23;;;;;;;;;;;;;;;20.98;41.95;100178.47;5056341;28;19913;-84
2022/04/24 06:09:48;;;;;;;;;;;;;;;20.98;42.27;100175.72;5055343;28;19921;-83
2022/04/24 06:12:17;;;;;;;;;;;;;;;20.99;42.21;100185.59;5056164;28;20285;-83
2022/04/24 06:14:42;;;;;;;;;;;;;;;20.98;42.28;100183.16;5054909;28;19916;-82
2022/04/24 06:17:07;;;;;;;;;;;;;;;20.99;42.33;100185.59;5055125;28;20372;-83
2022/04/24 06:19:33;;;;;;;;;;;;;;;20.98;42.16;100189.47;5055186;28;20070;-83
2022/04/24 06:21:59;;;;;;;;;;;;;;;20.99;42.31;100182.03;5071171;28;19928;-82
2022/04/24 06:24:24;;;;;;;;;;;;;;;20.99;42.40;100190.25;5056055;28;19923;-83
2022/04/24 06:26:49;;;;;;;;;;;;;;;20.99;42.41;100193.00;5054743;28;20019;-83
2022/04/24 06:29:15;;;;;;;;;;;;;;;20.99;42.06;100193.00;5054484;28;20312;-83
2022/04/24 06:31:40;;;;;;;;;;;;;;;20.99;42.22;100184.75;5055910;28;19921;-83
2022/04/24 06:34:05;;;;;;;;;;;;;;;20.99;42.29;100190.25;5054570;28;20009;-83
2022/04/24 06:36:31;;;;;;;;;;;;;;;20.99;42.31;100193.84;5071364;28;19921;-83
2022/04/24 06:38:56;;;;;;;;;;;;;;;20.98;42.19;100189.47;5055718;28;19917;-83
2022/04/24 06:41:21;;;;;;;;;;;;;;;20.99;42.38;100190.25;5071696;28;20354;-80
2022/04/24 06:43:46;;;;;;;;;;;;;;;20.99;42.02;100191.09;5054688;28;19974;-81
2022/04/24 06:46:12;;;;;;;;;;;;;;;20.99;42.24;100198.50;5054380;28;19921;-82
2022/04/24 06:48:40;;;;;;;;;;;;;;;20.99;42.38;100210.31;5055741;28;20404;-82
2022/04/24 06:51:05;;;;;;;;;;;;;;;20.99;42.25;100207.56;5055625;28;19921;-88
2022/04/24 06:53:30;;;;;;;;;;;;;;;21.00;42.29;100198.19;5055467;28;19917;-82
2022/04/24 06:55:56;;;;;;;;;;;;;;;20.99;42.17;100204.00;5055149;28;19991;-82
2022/04/24 06:58:21;;;;;;;;;;;;;;;20.99;42.20;100204.81;5055469;28;20038;-82
2022/04/24 07:00:48;;;;;;;;;;;;;;;20.99;42.01;100210.31;5087671;28;19970;-84
2022/04/24 07:03:21;;;;;;;;;;;;;;;20.99;41.93;100207.56;5053554;28;19917;-82
2022/04/24 07:05:46;;;;;;;;;;;;;;;20.99;42.36;100202.06;5055451;28;19923;-82
2022/04/24 07:08:11;;;;;;;;;;;;;;;21.00;42.28;100197.38;5053863;28;20007;-83
2022/04/24 07:10:37;;;;;;;;;;;;;;;21.00;42.02;100208.38;5055728;28;20276;-83
2022/04/24 07:13:03;;;;;;;;;;;;;;;21.01;42.28;100207.22;5070599;28;19921;-83
2022/04/24 07:15:32;;;;;;;;;;;;;;;21.00;42.25;100200.94;5055196;28;19917;-84
2022/04/24 07:17:57;;;;;;;;;;;;;;;21.00;42.25;100206.41;5055157;28;19917;-83
2022/04/24 07:20:23;;;;;;;;;;;;;;;21.00;42.27;100198.19;5054327;28;19921;-84
2022/04/24 07:22:49;;;;;;;;;;;;;;;21.00;42.23;100203.66;5054990;28;20261;-83
2022/04/24 07:25:19;;;;;;;;;;;;;;;21.01;42.23;100201.72;5053187;28;19968;-83
2022/04/24 07:27:44;;;;;;;;;;;;;;;21.01;42.14;100213.50;5054832;28;19963;-84
2022/04/24 07:30:16;;;;;;;;;;;;;;;21.00;42.03;100208.38;5053763;28;20439;-83
2022/04/24 07:32:46;;;;;;;;;;;;;;;21.01;42.21;100215.47;5053372;28;19966;-84
2022/04/24 07:35:12;;;;;;;;;;;;;;;21.01;41.96;100219.00;5055247;28;19920;-86
2022/04/24 07:37:37;;;;;;;;;;;;;;;21.01;42.29;100213.50;5054485;28;19917;-83
2022/04/24 07:40:06;;;;;;;;;;;;;;;21.02;41.97;100219.84;5054897;28;19986;-83
2022/04/24 07:42:32;;;;;;;;;;;;;;;21.02;42.35;100214.34;5053578;28;20308;-82
2022/04/24 07:44:57;;;;;;;;;;;;;;;21.02;42.38;100212.41;5087154;28;19999;-83
2022/04/24 07:47:26;;;;;;;;;;;;;;;21.02;42.21;100220.63;5054336;28;19917;-83
2022/04/24 07:49:51;;;;;;;;;;;;;;;21.02;42.23;100223.38;5070158;28;19968;-82
2022/04/24 07:52:18;;;;;;;;;;;;;;;21.03;42.03;100215.94;5070009;28;20361;-82
2022/04/24 07:54:44;;;;;;;;;;;;;;;21.03;42.35;100213.19;5086316;28;20036;-84
2022/04/24 07:57:13;;;;;;;;;;;;;;;21.03;42.23;100222.22;5069645;28;19921;-83
2022/04/24 07:59:38;;;;;;;;;;;;;;;21.05;42.35;100213.69;5053276;28;19956;-82
2022/04/24 08:02:03;;;;;;;;;;;;;;;21.04;42.29;100215.63;5053111;28;19948;-82
2022/04/24 08:04:29;;;;;;;;;;;;;;;21.04;42.21;100215.63;5070395;28;20353;-82
2022/04/24 08:06:54;;;;;;;;;;;;;;;21.05;42.39;100227.41;5053116;28;19932;-82
2022/04/24 08:09:19;;;;;;;;;;;;;;;21.05;42.33;100219.97;5054278;28;20269;-83
2022/04/24 08:11:45;;;;;;;;;;;;;;;21.06;42.21;100229.81;5069993;28;19921;-83
2022/04/24 08:14:10;;;;;;;;;;;;;;;21.05;42.35;100222.72;5054604;28;19917;-83
2022/04/24 08:16:35;;;;;;;;;;;;;;;21.06;42.34;100223.53;5053038;28;19927;-82
2022/04/24 08:19:01;;;;;;;;;;;;;;;21.06;42.08;100232.56;5053836;28;20277;-84
2022/04/24 08:21:26;;;;;;;;;;;;;;;21.07;42.36;100231.44;5069278;28;20003;-85
2022/04/24 08:23:51;;;;;;;;;;;;;;;21.07;42.38;100238.88;5054341;28;19917;-83
2022/04/24 08:26:18;;;;;;;;;;;;;;;21.08;42.25;100237.75;5052933;28;19928;-85
2022/04/24 08:28:43;;;;;;;;;;;;;;;21.09;42.18;100242.09;5068458;28;20369;-83
2022/04/24 08:31:09;;;;;;;;;;;;;;;21.08;42.05;100238.53;5085807;28;19924;-82
2022/04/24 08:33:34;;;;;;;;;;;;;;;21.10;42.35;100235.47;5086135;28;19924;-83
2022/04/24 08:35:59;;;;;;;;;;;;;;;21.11;42.10;100245.31;5085965;28;19920;-82
2022/04/24 08:38:25;;;;;;;;;;;;;;;21.11;42.42;100240.63;5069385;28;19928;-82
2022/04/24 08:40:52;;;;;;;;;;;;;;;21.11;42.31;100243.38;5053794;28;19970;-83
2022/04/24 08:43:18;;;;;;;;;;;;;;;21.13;42.59;100234.81;5052520;28;19924;-87
2022/04/24 08:45:46;;;;;;;;;;;;;;;21.15;42.33;100240.81;5056966;28;19917;-89
2022/04/24 08:48:11;;;;;;;;;;;;;;;21.16;42.41;100247.91;5057958;28;19981;-82
2022/04/24 08:50:36;;;;;;;;;;;;;;;21.17;42.78;100250.31;5090232;28;19962;-84
2022/04/24 08:53:02;;;;;;;;;;;;;;;21.21;42.75;100252.41;5057841;28;19964;-78
2022/04/24 08:55:28;;;;;;;;;;;;;;;21.21;42.61;100247.72;5090032;28;19921;-81
2022/04/24 08:57:53;;;;;;;;;;;;;;;21.23;42.87;100250.16;5057655;28;19917;-79
2022/04/24 09:00:19;;;;;;;;;;;;;;;21.26;43.05;100249.50;5056176;28;19921;-79
2022/04/24 09:02:45;;;;;;;;;;;;;;;21.26;42.75;100253.03;5056208;28;19971;-82
2022/04/24 09:05:11;;;;;;;;;;;;;;;21.28;42.92;100252.72;5057509;28;19956;-79
2022/04/24 09:07:36;;;;;;;;;;;;;;;21.30;42.84;100247.72;5055865;28;19964;-85
2022/04/24 09:10:04;;;;;;;;;;;;;;;21.31;42.85;100254.81;5089447;28;19979;-86
2022/04/24 09:12:29;;;;;;;;;;;;;;;21.32;42.88;100246.25;5056470;28;19920;-83
2022/04/24 09:14:57;;;;;;;;;;;;;;;21.34;42.93;100245.91;5056340;28;20391;-84
2022/04/24 09:17:30;;;;;;;;;;;;;;;21.35;42.97;100253.03;5057410;28;19916;-84
2022/04/24 09:19:58;;;;;;;;;;;;;;;21.35;42.96;100262.09;5057161;28;19921;-84
2022/04/24 09:22:27;;;;;;;;;;;;;;;21.36;42.95;100252.69;5055779;28;20376;-80
2022/04/24 09:24:55;;;;;;;;;;;;;;;21.37;43.24;100261.78;5056379;28;19917;-87
2022/04/24 09:27:22;;;;;;;;;;;;;;;21.37;43.24;100253.53;5088788;28;19928;-85
2022/04/24 09:29:51;;;;;;;;;;;;;;;21.38;43.36;100263.38;5057294;28;20448;-82
2022/04/24 09:32:16;;;;;;;;;;;;;;;21.39;42.94;100262.25;5056044;28;19929;-82
2022/04/24 09:34:42;;;;;;;;;;;;;;;21.40;43.09;100255.66;5056868;28;19939;-83
2022/04/24 09:37:09;;;;;;;;;;;;;;;21.39;43.31;100265.00;5056747;28;19927;-84
2022/04/24 09:39:35;;;;;;;;;;;;;;;21.39;43.10;100256.75;5057384;28;19917;-80
2022/04/24 09:42:01;;;;;;;;;;;;;;;21.39;43.04;100251.25;5056886;28;19920;-83
2022/04/24 09:44:34;;;;;;;;;;;;;;;21.39;43.31;100259.50;5056639;28;20411;-81
2022/04/24 09:47:00;;;;;;;;;;;;;;;21.37;43.02;100251.59;5056741;28;19923;-82
2022/04/24 09:49:25;;;;;;;;;;;;;;;21.38;43.02;100252.38;5056275;28;19920;-82
2022/04/24 09:51:50;;;;;;;;;;;;;;;21.37;43.17;100254.31;5055534;28;20327;-82
2022/04/24 09:54:16;;;;;;;;;;;;;;;21.38;42.97;100255.13;5056870;28;20402;-83
2022/04/24 09:56:42;;;;;;;;;;;;;;;21.38;42.93;100249.63;5071569;28;19917;-84
2022/04/24 09:59:08;;;;;;;;;;;;;;;21.37;43.15;100259.03;5055495;28;20074;-83
2022/04/24 10:01:33;;;;;;;;;;;;;;;21.36;43.11;100257.38;5088449;28;19921;-83
2022/04/24 10:03:59;;;;;;;;;;;;;;;21.36;42.79;100251.91;5055260;28;20058;-82
2022/04/24 10:06:24;;;;;;;;;;;;;;;21.37;43.17;100259.81;5056035;28;19943;-84
2022/04/24 10:08:51;;;;;;;;;;;;;;;21.35;42.49;100261.28;5088608;28;20114;-84
2022/04/24 10:11:16;;;;;;;;;;;;;;;21.34;42.70;100252.25;5056383;28;19923;-82
2022/04/24 10:13:43;;;;;;;;;;;;;;;21.35;42.79;100255.78;5071236;28;19921;-83
2022/04/24 10:16:09;;;;;;;;;;;;;;;21.35;42.64;100253.84;5055050;28;19960;-82
2022/04/24 10:18:46;;;;;;;;;;;;;;;21.35;42.77;100261.28;5055625;28;19936;-82
2022/04/24 10:21:28;;;;;;;;;;;;;;;21.34;42.36;100263.22;5054927;28;19960;-84
2022/04/24 10:23:53;;;;;;;;;;;;;;;21.33;42.32;100271.78;5056701;28;19967;-84
2022/04/24 10:26:22;;;;;;;;;;;;;;;21.34;42.31;100265.16;5071172;28;19921;-83
2022/04/24 10:28:48;;;;;;;;;;;;;;;21.33;42.31;100269.84;5055855;28;20012;-83
2022/04/24 10:31:14;;;;;;;;;;;;;;;21.33;42.30;100266.28;5055953;28;20011;-84
2022/04/24 10:33:51;;;;;;;;;;;;;;;21.33;42.18;100271.78;5054229;28;20034;-83
2022/04/24 10:36:17;;;;;;;;;;;;;;;21.34;42.18;100270.63;5055987;28;20023;-83
2022/04/24 10:39:09;;;;;;;;;;;;;;;21.33;42.39;100258.06;5055676;28;20369;-82
2022/04/24 10:41:36;;;;;;;;;;;;;;;21.32;42.38;100265.50;5054366;28;19917;-82
2022/04/24 10:44:09;;;;;;;;;;;;;;;21.32;42.18;100261.94;5056050;28;19921;-81
2022/04/24 10:46:38;;;;;;;;;;;;;;;21.31;42.11;100260.31;5055946;28;19923;-81
2022/04/24 10:49:10;;;;;;;;;;;;;;;21.29;41.93;100268.91;5054176;28;19917;-83
2022/04/24 10:51:37;;;;;;;;;;;;;;;21.30;41.80;100269.69;5054419;28;19920;-83
2022/04/24 10:54:08;;;;;;;;;;;;;;;21.30;41.83;100264.19;5055380;28;20292;-86
2022/04/24 10:56:35;;;;;;;;;;;;;;;21.30;41.86;100269.69;5056199;28;20042;-83
2022/04/24 10:59:19;;;;;;;;;;;;;;;21.29;41.49;100268.91;5054287;28;20019;-82
2022/04/24 11:01:50;;;;;;;;;;;;;;;21.28;41.56;100270.00;5056067;28;19925;-83
2022/04/24 11:04:16;;;;;;;;;;;;;;;21.28;41.43;100267.25;5055183;28;20007;-82
2022/04/24 11:06:58;;;;;;;;;;;;;;;21.28;41.44;100272.75;5054718;28;20376;-81
2022/04/24 11:09:24;;;;;;;;;;;;;;;21.28;41.69;100264.50;5053357;28;19967;-83
2022/04/24 11:11:51;;;;;;;;;;;;;;;21.28;41.38;100260.97;5071293;28;19925;-82
2022/04/24 11:14:20;;;;;;;;;;;;;;;21.29;41.44;100268.06;5055459;28;19917;-86
2022/04/24 11:16:52;;;;;;;;;;;;;;;21.29;41.34;100255.16;5070572;28;19924;-88
2022/04/24 11:19:27;;;;;;;;;;;;;;;21.29;41.29;100268.91;5054199;28;19986;-87
2022/04/24 11:22:23;;;;;;;;;;;;;;;21.29;41.17;100257.06;5055149;28;19924;-85
2022/04/24 11:24:48;;;;;;;;;;;;;;;21.29;41.28;100255.16;5059128;28;19924;-84
2022/04/24 11:27:14;;;;;;;;;;;;;;;21.30;41.31;100266.94;5055072;28;19921;-83
2022/04/24 11:29:40;;;;;;;;;;;;;;;21.28;41.42;100267.25;5052904;28;20288;-83
2022/04/24 11:32:08;;;;;;;;;;;;;;;21.29;41.16;100262.56;5053182;28;20031;-84
2022/04/24 11:34:33;;;;;;;;;;;;;;;21.29;41.32;100260.66;5054357;28;20427;-83
2022/04/24 11:36:59;;;;;;;;;;;;;;;21.30;41.18;100261.47;5054270;28;19920;-83
2022/04/24 11:39:25;;;;;;;;;;;;;;;21.30;40.84;100256.75;5053301;28;19952;-85
2022/04/24 11:41:51;;;;;;;;;;;;;;;21.31;41.20;100244.63;5053379;28;19928;-83
2022/04/24 11:52:40;;;;;;;;;;;;;;;21.30;41.10;100245.78;5055011;28;20373;-90
2022/04/24 11:55:06;;;;;;;;;;;;;;;21.32;40.98;100265.50;5054275;28;19921;-84
2022/04/24 11:57:35;;;;;;;;;;;;;;;21.31;40.73;100258.38;5052728;28;20340;-85
2022/04/24 12:00:03;;;;;;;;;;;;;;;21.31;40.98;100266.59;5052902;28;20012;-84
2022/04/24 12:02:28;;;;;;;;;;;;;;;21.33;40.88;100266.28;5054182;28;19921;-83
2022/04/24 12:04:54;;;;;;;;;;;;;;;21.33;40.81;100258.84;5086909;28;19970;-82
2022/04/24 12:07:21;;;;;;;;;;;;;;;21.34;40.70;100259.66;5086503;28;19962;-82
2022/04/24 12:09:59;;;;;;;;;;;;;;;21.35;40.63;100269.53;5053072;28;19913;-83
2022/04/24 12:12:24;;;;;;;;;;;;;;;21.35;40.58;100264.03;5053917;28;19917;-86
2022/04/24 12:14:53;;;;;;;;;;;;;;;21.36;40.79;100263.69;5085837;28;20444;-85
2022/04/24 12:17:24;;;;;;;;;;;;;;;21.36;40.89;100258.19;5052636;28;19923;-84
2022/04/24 12:19:55;;;;;;;;;;;;;;;21.37;40.88;100268.06;5053855;28;19979;-85
2022/04/24 12:22:28;;;;;;;;;;;;;;;21.37;40.61;100265.31;5053317;28;19917;-82
2022/04/24 12:24:54;;;;;;;;;;;;;;;21.38;40.75;100272.44;5052646;28;20027;-82
2022/04/24 12:27:20;;;;;;;;;;;;;;;21.37;40.68;100279.06;5054387;28;19960;-82
2022/04/24 12:29:50;;;;;;;;;;;;;;;21.37;40.41;100281.81;5068734;28;20384;-84
2022/04/24 12:32:26;;;;;;;;;;;;;;;21.38;40.62;100277.94;5054194;28;19925;-83
2022/04/24 12:34:51;;;;;;;;;;;;;;;21.38;40.50;100275.19;5052766;28;20357;-84
2022/04/24 12:37:27;;;;;;;;;;;;;;;21.39;40.60;100265.00;5068875;28;19928;-84
2022/04/24 12:39:53;;;;;;;;;;;;;;;21.39;40.49;100284.22;5054086;28;20446;-83